Time;durP1;ratioP1;P1;durP2;ratioP2;P2;SDS_P1;SDS_P2;PMS_P1;PMS_P2;Temp;Humidity;BMP_temperature;BMP_pressure;BME280_temperature;BME280_humidity;BME280_pressure;Samples;Min_cycle;Max_cycle;Signal;HPM_P1;HPM_P2
2022/07/12 00:02:22;;;;;;;9.10;6.30;;;16.40;89.80;;;;;;5052979;28;20541;-50
2022/07/12 00:04:48;;;;;;;8.93;6.80;;;16.40;89.40;;;;;;5063996;28;21054;-50
2022/07/12 00:07:16;;;;;;;10.60;6.70;;;16.50;89.10;;;;;;5049085;28;20485;-50
2022/07/12 00:09:43;;;;;;;11.87;7.10;;;16.40;89.60;;;;;;5058232;28;20474;-50
2022/07/12 00:12:10;;;;;;;7.67;5.70;;;16.50;90.20;;;;;;5055079;28;20964;-49
2022/07/12 00:14:38;;;;;;;9.83;7.27;;;16.50;89.30;;;;;;5050150;28;20482;-50
2022/07/12 00:17:05;;;;;;;9.33;7.40;;;16.50;90.10;;;;;;5044309;28;20477;-49
2022/07/12 00:19:32;;;;;;;15.00;7.87;;;16.50;90.40;;;;;;5052346;28;20482;-50
2022/07/12 00:21:58;;;;;;;9.97;7.50;;;16.60;90.50;;;;;;5059042;28;20490;-50
2022/07/12 00:24:25;;;;;;;14.60;7.10;;;16.60;90.30;;;;;;5061317;28;20491;-50
2022/07/12 00:26:52;;;;;;;11.33;6.90;;;16.60;89.20;;;;;;5057599;28;20483;-50
2022/07/12 00:29:19;;;;;;;7.20;6.50;;;16.60;89.00;;;;;;5061018;28;20979;-50
2022/07/12 00:31:47;;;;;;;8.97;6.17;;;16.50;89.00;;;;;;5058904;28;20489;-49
2022/07/12 00:34:13;;;;;;;10.73;6.57;;;16.50;89.00;;;;;;5058104;28;20489;-50
2022/07/12 00:36:40;;;;;;;11.60;6.33;;;16.40;88.90;;;;;;5054129;28;20484;-50
2022/07/12 00:39:07;;;;;;;7.37;6.47;;;16.40;88.50;;;;;;5059544;28;20493;-51
2022/07/12 00:41:34;;;;;;;8.37;6.70;;;16.40;89.40;;;;;;5059283;28;20481;-50
2022/07/12 00:44:01;;;;;;;9.90;7.07;;;16.40;90.00;;;;;;5059766;28;20953;-50
2022/07/12 00:46:28;;;;;;;7.07;6.07;;;16.30;89.60;;;;;;5064150;28;20907;-50
2022/07/12 00:48:56;;;;;;;9.20;6.40;;;16.20;89.30;;;;;;5058111;28;20861;-50
2022/07/12 00:51:22;;;;;;;10.10;7.37;;;16.20;90.00;;;;;;5059256;28;20475;-50
2022/07/12 00:53:51;;;;;;;9.97;6.90;;;16.20;89.10;;;;;;5058643;28;21422;-50
2022/07/12 00:56:18;;;;;;;9.60;6.80;;;16.20;89.10;;;;;;5056836;28;20483;-50
2022/07/12 00:58:45;;;;;;;9.87;6.93;;;16.10;89.40;;;;;;5052788;28;20490;-50
2022/07/12 01:01:12;;;;;;;9.10;7.37;;;16.10;90.10;;;;;;5056604;28;20474;-50
2022/07/12 01:03:39;;;;;;;9.27;7.90;;;16.10;90.50;;;;;;5057412;28;21051;-50
2022/07/12 01:06:08;;;;;;;15.23;7.90;;;16.10;90.80;;;;;;5059474;28;20980;-50
2022/07/12 01:08:35;;;;;;;12.53;7.80;;;16.10;90.30;;;;;;5036947;28;20501;-50
2022/07/12 01:11:03;;;;;;;8.67;5.97;;;16.10;89.90;;;;;;5051713;28;20470;-50
2022/07/12 01:13:30;;;;;;;9.40;6.80;;;16.20;90.00;;;;;;5063252;28;20479;-50
2022/07/12 01:15:57;;;;;;;10.30;7.63;;;16.10;90.10;;;;;;5056943;28;20478;-49
2022/07/12 01:18:26;;;;;;;8.97;7.03;;;16.10;90.30;;;;;;5062839;28;20479;-50
2022/07/12 01:20:53;;;;;;;11.43;8.37;;;16.20;89.80;;;;;;5058457;28;20490;-50
2022/07/12 01:23:22;;;;;;;11.43;6.30;;;16.10;89.80;;;;;;5059238;28;20490;-51
2022/07/12 01:25:49;;;;;;;9.33;6.70;;;16.00;90.10;;;;;;5057341;28;20479;-49
2022/07/12 01:28:16;;;;;;;9.50;6.53;;;16.00;90.30;;;;;;5056277;28;20491;-50
2022/07/12 01:30:43;;;;;;;10.10;7.30;;;16.00;90.10;;;;;;5057634;28;20485;-50
2022/07/12 01:33:09;;;;;;;7.93;5.70;;;15.90;89.50;;;;;;5060365;28;20479;-49
2022/07/12 01:35:37;;;;;;;7.97;7.13;;;15.90;89.90;;;;;;5058613;28;20475;-50
2022/07/12 01:38:03;;;;;;;8.90;7.27;;;15.90;90.10;;;;;;5062224;28;20959;-50
2022/07/12 01:40:31;;;;;;;8.33;7.30;;;15.90;90.20;;;;;;5057639;28;20464;-49
2022/07/12 01:42:58;;;;;;;9.30;6.10;;;15.80;90.00;;;;;;5060253;28;20486;-50
2022/07/12 01:45:25;;;;;;;8.77;6.90;;;15.80;89.50;;;;;;5056745;28;20478;-49
2022/07/12 01:47:52;;;;;;;9.23;6.00;;;15.70;88.70;;;;;;5055385;28;20475;-50
2022/07/12 01:50:19;;;;;;;7.50;5.60;;;15.70;89.20;;;;;;5058678;28;21289;-50
2022/07/12 01:52:46;;;;;;;10.37;7.67;;;15.60;89.80;;;;;;5048550;28;20478;-50
2022/07/12 01:55:12;;;;;;;11.10;7.37;;;15.60;90.70;;;;;;5057678;28;20482;-50
2022/07/12 01:57:42;;;;;;;13.90;9.07;;;15.60;90.60;;;;;;5056693;28;20474;-49
2022/07/12 02:00:10;;;;;;;10.80;7.40;;;15.60;90.60;;;;;;5059004;28;21024;-49
2022/07/12 02:02:37;;;;;;;16.83;6.53;;;15.50;90.30;;;;;;5060439;28;20988;-49
2022/07/12 02:05:05;;;;;;;9.00;7.17;;;15.50;90.60;;;;;;5054984;28;20485;-49
2022/07/12 02:07:32;;;;;;;8.67;7.67;;;15.40;90.00;;;;;;5055459;28;20811;-49
2022/07/12 02:09:59;;;;;;;8.80;5.93;;;15.20;89.80;;;;;;5057221;28;20491;-49
2022/07/12 02:12:26;;;;;;;7.33;5.77;;;15.20;89.90;;;;;;5057156;28;20484;-49
2022/07/12 02:14:54;;;;;;;7.90;5.77;;;15.20;90.10;;;;;;5048518;28;20477;-49
2022/07/12 02:17:20;;;;;;;9.03;6.63;;;15.10;90.00;;;;;;5058307;28;20498;-48
2022/07/12 02:19:47;;;;;;;9.93;8.10;;;15.10;90.30;;;;;;5058508;28;20839;-48
2022/07/12 02:22:14;;;;;;;8.10;5.50;;;15.10;90.40;;;;;;5057206;28;21067;-48
2022/07/12 02:24:41;;;;;;;8.67;6.90;;;15.00;90.50;;;;;;5056618;28;20486;-48
2022/07/12 02:27:08;;;;;;;8.37;6.87;;;15.00;90.50;;;;;;5059865;28;20486;-48
2022/07/12 02:29:35;;;;;;;9.00;7.20;;;15.10;90.40;;;;;;5057329;28;20857;-48
2022/07/12 02:32:04;;;;;;;11.47;6.80;;;15.10;90.30;;;;;;5057910;28;21478;-48
2022/07/12 02:34:31;;;;;;;15.37;8.07;;;15.10;90.30;;;;;;5053625;28;20906;-48
2022/07/12 02:36:57;;;;;;;10.90;7.33;;;15.10;90.30;;;;;;5051924;28;20609;-48
2022/07/12 02:39:24;;;;;;;13.20;7.43;;;15.10;90.60;;;;;;5057460;28;20918;-48
2022/07/12 02:41:51;;;;;;;8.07;6.43;;;15.10;90.70;;;;;;5056462;28;20494;-48
2022/07/12 02:44:18;;;;;;;12.97;7.27;;;15.00;90.80;;;;;;5048384;28;21023;-49
2022/07/12 02:46:44;;;;;;;11.23;7.60;;;15.00;90.90;;;;;;5057015;28;20884;-49
2022/07/12 02:49:13;;;;;;;12.23;7.90;;;15.00;91.00;;;;;;5057027;28;20932;-49
2022/07/12 02:51:40;;;;;;;12.90;8.97;;;15.00;91.30;;;;;;5022531;28;20493;-48
2022/07/12 02:54:06;;;;;;;11.90;8.03;;;15.00;91.10;;;;;;5050977;28;20482;-48
2022/07/12 02:56:33;;;;;;;14.80;9.20;;;15.00;91.20;;;;;;5058198;28;20487;-49
2022/07/12 02:59:00;;;;;;;13.43;9.83;;;15.00;91.30;;;;;;5062752;28;20501;-48
2022/07/12 03:01:26;;;;;;;9.20;7.97;;;15.00;91.50;;;;;;5058968;28;21012;-48
2022/07/12 03:03:53;;;;;;;12.80;8.77;;;15.10;91.20;;;;;;5055128;28;20482;-48
2022/07/12 03:06:21;;;;;;;14.00;8.20;;;15.10;91.10;;;;;;5054949;28;20501;-49
2022/07/12 03:08:48;;;;;;;12.70;7.40;;;15.10;90.40;;;;;;5051207;28;20486;-49
2022/07/12 03:11:14;;;;;;;9.33;7.23;;;15.10;90.50;;;;;;5051604;28;20577;-53
2022/07/12 03:13:41;;;;;;;9.67;8.03;;;15.10;90.80;;;;;;5056909;28;20486;-49
2022/07/12 03:16:08;;;;;;;13.40;8.40;;;15.00;90.70;;;;;;5053966;28;20489;-48
2022/07/12 03:18:35;;;;;;;11.20;9.40;;;15.00;90.80;;;;;;5036570;28;20490;-48
2022/07/12 03:21:02;;;;;;;12.30;8.47;;;15.00;90.90;;;;;;5060483;28;20475;-49
2022/07/12 03:23:30;;;;;;;13.20;9.60;;;14.90;90.90;;;;;;5049327;28;20495;-49
2022/07/12 03:25:57;;;;;;;13.17;8.50;;;14.90;90.90;;;;;;5057168;28;20493;-49
2022/07/12 03:28:25;;;;;;;12.17;8.63;;;14.90;91.30;;;;;;5061501;28;20486;-52
2022/07/12 03:30:52;;;;;;;11.13;8.53;;;14.90;91.40;;;;;;5061876;28;20473;-49
2022/07/12 03:33:19;;;;;;;11.53;8.33;;;14.90;91.10;;;;;;5060147;28;20489;-48
2022/07/12 03:35:45;;;;;;;11.70;8.70;;;14.90;91.10;;;;;;5060156;28;20921;-48
2022/07/12 03:38:12;;;;;;;14.50;8.90;;;14.90;91.30;;;;;;5057008;28;20495;-48
2022/07/12 03:40:40;;;;;;;11.53;8.10;;;14.90;91.30;;;;;;5055827;28;20490;-48
2022/07/12 03:43:07;;;;;;;11.83;8.30;;;14.90;91.20;;;;;;5056773;28;20487;-48
2022/07/12 03:45:34;;;;;;;16.37;9.77;;;14.80;91.20;;;;;;5056639;28;20494;-48
2022/07/12 03:48:01;;;;;;;12.70;10.00;;;14.80;91.40;;;;;;5060830;28;21026;-48
2022/07/12 03:50:27;;;;;;;13.07;9.27;;;14.90;91.50;;;;;;5058202;28;20490;-48
2022/07/12 03:52:54;;;;;;;12.23;8.43;;;14.90;91.40;;;;;;5059857;28;20480;-48
2022/07/12 03:55:21;;;;;;;12.67;8.33;;;14.90;91.60;;;;;;5022146;28;20487;-48
2022/07/12 03:57:51;;;;;;;13.47;8.90;;;14.90;91.40;;;;;;5056475;28;20559;-48
2022/07/12 04:00:18;;;;;;;14.00;8.23;;;14.90;91.30;;;;;;5063745;28;20500;-48
2022/07/12 04:02:44;;;;;;;10.20;8.00;;;14.90;91.20;;;;;;5057105;28;20912;-49
2022/07/12 04:05:12;;;;;;;11.73;8.87;;;14.90;91.20;;;;;;5041560;28;20497;-48
2022/07/12 04:07:40;;;;;;;15.27;9.00;;;14.90;91.40;;;;;;5061818;28;20801;-48
2022/07/12 04:10:07;;;;;;;12.80;7.60;;;14.90;91.70;;;;;;5059745;28;20471;-48
2022/07/12 04:12:34;;;;;;;8.67;7.60;;;14.90;91.00;;;;;;5059329;28;20498;-48
2022/07/12 04:15:03;;;;;;;9.53;6.90;;;14.80;90.60;;;;;;5060531;28;20580;-48
2022/07/12 04:17:29;;;;;;;13.80;9.70;;;14.70;90.90;;;;;;5026461;28;20493;-48
2022/07/12 04:19:56;;;;;;;15.03;8.67;;;14.70;91.50;;;;;;5060638;28;20484;-49
2022/07/12 04:22:23;;;;;;;14.87;9.33;;;14.70;91.70;;;;;;5061299;28;20513;-49
2022/07/12 04:24:50;;;;;;;15.73;9.77;;;14.70;91.70;;;;;;5059023;28;20478;-49
2022/07/12 04:27:16;;;;;;;13.40;9.80;;;14.80;91.80;;;;;;5052778;28;20486;-49
2022/07/12 04:29:43;;;;;;;18.80;11.10;;;14.90;91.90;;;;;;5059552;28;20497;-49
2022/07/12 04:32:11;;;;;;;17.87;9.73;;;14.90;91.90;;;;;;5064990;28;20600;-49
2022/07/12 04:34:38;;;;;;;14.50;9.60;;;15.00;92.00;;;;;;5061837;28;20487;-50
2022/07/12 04:37:05;;;;;;;15.10;9.03;;;15.10;92.00;;;;;;5059934;28;20488;-49
2022/07/12 04:39:32;;;;;;;10.70;7.30;;;15.10;92.00;;;;;;5056187;28;20865;-49
2022/07/12 04:41:59;;;;;;;8.37;6.73;;;15.10;90.90;;;;;;5055070;28;20482;-49
2022/07/12 04:44:25;;;;;;;10.70;6.30;;;15.10;90.80;;;;;;5059471;28;20482;-49
2022/07/12 04:46:52;;;;;;;10.47;7.30;;;15.20;90.90;;;;;;5042489;28;20831;-49
2022/07/12 04:49:20;;;;;;;9.87;7.40;;;15.20;90.90;;;;;;5058176;28;20485;-49
2022/07/12 04:51:47;;;;;;;11.87;7.60;;;15.30;90.90;;;;;;5060437;28;20474;-48
2022/07/12 04:54:13;;;;;;;10.97;6.67;;;15.30;90.90;;;;;;5062887;28;20474;-48
2022/07/12 04:56:40;;;;;;;10.17;7.97;;;;;;;;;;5057329;28;20478;-49
2022/07/12 04:59:07;;;;;;;16.30;7.93;;;15.60;91.70;;;;;;5059882;28;20486;-49
2022/07/12 05:01:34;;;;;;;11.47;7.93;;;15.60;91.90;;;;;;5050518;28;20972;-52
2022/07/12 05:04:00;;;;;;;8.97;7.60;;;15.70;91.90;;;;;;5061756;28;20566;-49
2022/07/12 05:06:28;;;;;;;13.30;8.67;;;15.90;91.40;;;;;;5048093;28;20494;-49
2022/07/12 05:08:55;;;;;;;8.90;7.20;;;15.90;91.60;;;;;;5058018;28;20900;-48
2022/07/12 05:11:22;;;;;;;23.53;9.90;;;;;;;;;;5060061;28;20490;-49
2022/07/12 05:13:49;;;;;;;13.90;9.00;;;16.20;92.90;;;;;;5057575;28;21070;-49
2022/07/12 05:16:17;;;;;;;12.47;9.20;;;16.30;93.20;;;;;;5061334;28;20471;-50
2022/07/12 05:18:44;;;;;;;14.57;10.33;;;16.50;93.80;;;;;;5056390;28;20525;-49
2022/07/12 05:21:10;;;;;;;14.70;10.20;;;16.60;94.00;;;;;;5056753;28;20754;-49
2022/07/12 05:23:38;;;;;;;15.00;10.50;;;16.70;94.10;;;;;;5059676;28;20499;-50
2022/07/12 05:26:05;;;;;;;14.27;9.90;;;16.80;94.10;;;;;;5058511;28;20477;-49
2022/07/12 05:28:32;;;;;;;12.27;9.33;;;16.90;94.20;;;;;;5059345;28;20478;-49
2022/07/12 05:30:59;;;;;;;16.10;9.80;;;16.90;94.10;;;;;;5061369;28;20482;-51
2022/07/12 05:33:26;;;;;;;14.40;9.87;;;16.90;94.30;;;;;;5059119;28;20472;-49
2022/07/12 05:35:52;;;;;;;13.03;7.83;;;17.00;94.40;;;;;;5048765;28;20491;-49
2022/07/12 05:38:19;;;;;;;13.00;9.73;;;17.10;94.50;;;;;;5062441;28;20727;-50
2022/07/12 05:40:47;;;;;;;11.93;9.17;;;17.10;94.50;;;;;;5059096;28;20486;-49
2022/07/12 05:43:15;;;;;;;14.80;9.47;;;17.20;94.50;;;;;;5054285;28;20479;-50
2022/07/12 05:45:42;;;;;;;12.73;9.00;;;17.30;94.20;;;;;;5055997;28;21210;-50
2022/07/12 05:48:09;;;;;;;13.23;9.07;;;17.40;94.40;;;;;;4999790;28;20507;-49
2022/07/12 05:50:36;;;;;;;10.53;8.27;;;17.50;94.50;;;;;;5048139;28;20475;-50
2022/07/12 05:55:49;;;;;;;13.70;8.97;;;17.80;94.60;;;;;;5050022;28;20506;-50
2022/07/12 05:58:15;;;;;;;10.47;8.40;;;17.80;94.90;;;;;;5044138;28;20487;-50
2022/07/12 06:00:42;;;;;;;9.40;7.93;;;17.90;94.90;;;;;;5048870;28;20492;-50
2022/07/12 06:03:09;;;;;;;9.20;7.83;;;18.00;94.50;;;;;;5050913;28;20964;-50
2022/07/12 06:05:36;;;;;;;12.70;8.77;;;18.20;94.80;;;;;;5054178;28;21058;-50
2022/07/12 06:08:03;;;;;;;10.23;7.37;;;18.30;94.10;;;;;;5058554;28;20478;-50
2022/07/12 06:10:29;;;;;;;9.20;6.80;;;18.40;94.70;;;;;;5058051;28;20485;-50
2022/07/12 06:12:57;;;;;;;7.70;6.47;;;18.50;94.30;;;;;;5052346;28;20487;-50
2022/07/12 06:15:25;;;;;;;12.23;8.87;;;18.70;94.60;;;;;;5053259;28;20482;-50
2022/07/12 06:17:52;;;;;;;10.97;7.10;;;19.00;93.60;;;;;;5052205;28;20574;-51
2022/07/12 06:20:19;;;;;;;9.57;6.70;;;19.00;93.80;;;;;;5032964;28;21001;-51
2022/07/12 06:22:45;;;;;;;10.73;6.63;;;19.40;93.30;;;;;;5040529;28;21034;-51
2022/07/12 06:25:12;;;;;;;5.97;5.37;;;19.40;93.30;;;;;;5052266;28;20780;-51
2022/07/12 06:27:39;;;;;;;8.90;6.30;;;19.70;93.20;;;;;;5063021;28;20484;-52
2022/07/12 06:30:08;;;;;;;7.40;5.70;;;20.10;92.70;;;;;;5058681;28;20470;-51
2022/07/12 06:32:35;;;;;;;7.17;5.50;;;20.10;93.00;;;;;;5053331;28;20483;-51
2022/07/12 06:35:01;;;;;;;4.20;3.80;;;20.40;92.30;;;;;;5055510;28;20473;-51
2022/07/12 06:37:28;;;;;;;4.97;4.00;;;20.50;92.00;;;;;;5038024;28;20491;-51
2022/07/12 06:39:55;;;;;;;7.40;4.67;;;20.70;91.80;;;;;;5054732;28;20489;-51
2022/07/12 06:42:22;;;;;;;6.10;3.90;;;20.90;91.80;;;;;;5047573;28;20478;-51
2022/07/12 06:44:48;;;;;;;5.17;4.77;;;21.10;91.50;;;;;;5050712;28;21205;-51
2022/07/12 06:47:16;;;;;;;4.50;3.77;;;21.40;91.60;;;;;;5055861;28;20493;-51
2022/07/12 06:49:43;;;;;;;4.53;3.73;;;21.50;90.90;;;;;;5052599;28;20489;-52
2022/07/12 06:52:10;;;;;;;4.37;3.83;;;;;;;;;;5058125;28;20490;-51
2022/07/12 06:54:37;;;;;;;5.00;3.90;;;21.80;90.70;;;;;;5044787;28;20466;-51
2022/07/12 06:57:04;;;;;;;3.90;3.50;;;21.90;90.60;;;;;;5056035;28;20463;-51
2022/07/12 06:59:31;;;;;;;6.87;3.77;;;;;;;;;;5058446;28;20474;-51
2022/07/12 07:01:58;;;;;;;6.20;3.20;;;22.40;90.50;;;;;;5050866;28;21148;-51
2022/07/12 07:04:27;;;;;;;3.10;2.80;;;22.40;90.70;;;;;;5049132;28;20487;-51
2022/07/12 07:06:53;;;;;;;3.10;2.80;;;22.90;89.00;;;;;;5053300;28;20480;-51
2022/07/12 07:09:20;;;;;;;2.80;2.10;;;23.00;88.00;;;;;;5051779;28;20827;-51
2022/07/12 07:11:47;;;;;;;3.33;2.60;;;23.30;87.70;;;;;;5046695;28;21099;-51
2022/07/12 07:14:13;;;;;;;4.20;1.70;;;23.40;86.70;;;;;;5057907;28;20490;-50
2022/07/12 07:16:40;;;;;;;4.13;1.90;;;23.50;84.30;;;;;;5052136;28;20836;-51
2022/07/12 07:19:07;;;;;;;2.50;2.23;;;23.60;84.20;;;;;;5024748;28;21019;-51
2022/07/12 07:21:35;;;;;;;2.60;2.03;;;23.80;84.70;;;;;;5059135;28;20490;-50
2022/07/12 07:24:02;;;;;;;3.17;2.40;;;23.90;83.40;;;;;;5059415;28;20482;-51
2022/07/12 07:26:29;;;;;;;2.80;2.50;;;23.90;83.90;;;;;;5045145;28;20611;-51
2022/07/12 07:31:36;;;;;;;2.00;1.80;;;24.20;83.10;;;;;;5009065;28;20473;-54
2022/07/12 07:34:03;;;;;;;5.00;2.23;;;24.30;82.10;;;;;;5060096;28;20828;-51
2022/07/12 07:36:30;;;;;;;2.57;2.00;;;24.40;81.70;;;;;;5060397;28;21067;-51
2022/07/12 07:38:59;;;;;;;2.43;2.03;;;24.60;83.30;;;;;;5055141;28;20959;-51
2022/07/12 07:41:26;;;;;;;2.53;1.80;;;24.70;84.20;;;;;;5042047;28;20987;-51
2022/07/12 07:43:52;;;;;;;2.00;1.70;;;25.00;81.50;;;;;;5058594;28;21003;-52
2022/07/12 07:46:20;;;;;;;2.20;1.67;;;25.00;81.80;;;;;;5059754;28;20929;-51
2022/07/12 07:48:46;;;;;;;2.10;1.60;;;25.10;81.30;;;;;;5053151;28;20877;-51
2022/07/12 07:51:13;;;;;;;1.90;1.60;;;25.10;79.90;;;;;;5054061;28;20511;-52
2022/07/12 07:53:40;;;;;;;1.87;1.53;;;25.30;79.60;;;;;;5062213;28;21446;-51
2022/07/12 07:56:08;;;;;;;2.40;1.83;;;25.40;80.10;;;;;;5053493;28;20478;-51
2022/07/12 07:58:35;;;;;;;3.03;1.70;;;25.70;78.90;;;;;;5048311;28;20483;-52
2022/07/12 08:01:02;;;;;;;2.27;1.77;;;25.90;78.70;;;;;;5051400;28;20814;-52
2022/07/12 08:03:28;;;;;;;2.73;1.70;;;26.10;78.40;;;;;;5060109;28;21187;-52
2022/07/12 08:05:57;;;;;;;2.03;1.43;;;26.10;78.30;;;;;;5058643;28;20478;-52
2022/07/12 08:08:24;;;;;;;3.23;1.93;;;26.30;77.60;;;;;;5054446;28;20480;-52
2022/07/12 08:10:51;;;;;;;3.07;1.40;;;26.50;76.60;;;;;;5053646;28;20481;-53
2022/07/12 08:13:19;;;;;;;3.03;1.60;;;26.60;76.00;;;;;;5057145;28;20556;-51
2022/07/12 08:15:46;;;;;;;2.40;1.80;;;26.70;74.60;;;;;;5052424;28;20491;-52
2022/07/12 08:18:12;;;;;;;2.50;1.50;;;26.80;72.50;;;;;;5060708;28;21120;-52
2022/07/12 08:20:39;;;;;;;5.10;1.40;;;27.00;73.60;;;;;;5058906;28;20992;-52
2022/07/12 08:23:06;;;;;;;2.00;1.30;;;27.00;71.20;;;;;;5039549;28;20474;-52
2022/07/12 08:25:33;;;;;;;3.03;1.63;;;27.10;71.50;;;;;;5060685;28;20470;-52
2022/07/12 08:27:59;;;;;;;2.00;1.37;;;27.10;71.40;;;;;;5059886;28;20482;-52
2022/07/12 08:30:28;;;;;;;5.70;1.13;;;27.30;71.30;;;;;;5062468;28;20959;-52
2022/07/12 08:32:55;;;;;;;2.10;1.60;;;27.30;70.60;;;;;;5044416;28;20487;-53
2022/07/12 08:35:22;;;;;;;4.10;1.80;;;27.50;70.60;;;;;;5046204;28;21034;-53
2022/07/12 08:37:49;;;;;;;3.20;2.00;;;27.50;68.40;;;;;;5052715;28;20995;-52
2022/07/12 08:40:15;;;;;;;2.13;1.67;;;27.30;67.90;;;;;;5060529;28;20492;-52
2022/07/12 08:42:42;;;;;;;3.00;1.53;;;27.30;70.20;;;;;;5057718;28;20488;-55
2022/07/12 08:45:10;;;;;;;3.50;2.87;;;27.30;70.60;;;;;;5065505;28;20483;-53
2022/07/12 08:47:38;;;;;;;2.70;2.30;;;27.30;70.60;;;;;;5052677;28;21046;-53
2022/07/12 08:50:13;;;;;;;3.13;2.03;;;27.70;69.20;;;;;;5064103;28;20490;-52
2022/07/12 08:52:41;;;;;;;2.87;2.50;;;27.80;69.40;;;;;;5063888;28;20478;-54
2022/07/12 08:55:19;;;;;;;5.40;2.50;;;28.20;70.30;;;;;;5063325;28;21262;-52
2022/07/12 08:57:46;;;;;;;2.87;1.43;;;28.30;68.10;;;;;;5052351;28;20825;-53
2022/07/12 09:00:14;;;;;;;2.37;1.67;;;28.50;69.10;;;;;;5059883;28;20481;-52
2022/07/12 09:02:47;;;;;;;2.10;1.57;;;28.60;67.80;;;;;;5052842;28;20470;-52
2022/07/12 09:05:14;;;;;;;2.10;1.60;;;28.50;68.10;;;;;;5054802;28;20488;-53
2022/07/12 09:07:41;;;;;;;1.90;1.70;;;28.70;68.50;;;;;;5040809;28;20895;-52
2022/07/12 09:10:09;;;;;;;2.47;1.93;;;28.20;65.40;;;;;;5029134;28;20834;-52
2022/07/12 09:12:37;;;;;;;2.37;1.57;;;28.00;67.80;;;;;;5045283;28;20486;-52
2022/07/12 09:15:19;;;;;;;3.40;2.13;;;27.90;66.80;;;;;;5060556;28;20841;-51
2022/07/12 09:18:12;;;;;;;2.20;1.70;;;27.60;67.00;;;;;;5056965;28;21116;-53
2022/07/12 09:20:40;;;;;;;2.03;1.83;;;27.50;68.70;;;;;;5061961;28;21085;-53
2022/07/12 09:23:09;;;;;;;4.13;2.37;;;27.50;67.60;;;;;;5057381;28;20486;-53
2022/07/12 09:25:37;;;;;;;1.90;1.60;;;27.80;69.00;;;;;;5046132;28;20483;-54
2022/07/12 09:28:06;;;;;;;2.00;1.40;;;28.10;67.00;;;;;;5053560;28;20460;-53
2022/07/12 09:30:32;;;;;;;2.10;1.30;;;28.30;66.10;;;;;;5053238;28;20493;-54
2022/07/12 09:36:09;;;;;;;2.20;1.83;;;28.40;63.00;;;;;;5044796;28;20506;-52
2022/07/12 09:38:37;;;;;;;2.40;1.60;;;28.20;67.40;;;;;;5041841;28;20854;-54
2022/07/12 09:41:04;;;;;;;3.83;1.83;;;28.30;68.80;;;;;;5063682;28;20471;-54
2022/07/12 09:43:32;;;;;;;2.77;1.40;;;28.50;66.70;;;;;;5063558;28;20478;-55
2022/07/12 09:45:59;;;;;;;3.70;1.60;;;28.70;65.10;;;;;;5061329;28;20656;-54
2022/07/12 09:48:29;;;;;;;2.10;1.50;;;28.70;65.50;;;;;;5046261;28;20850;-52
2022/07/12 09:50:59;;;;;;;3.10;1.40;;;29.10;65.40;;;;;;5029879;28;20478;-53
2022/07/12 09:53:30;;;;;;;1.90;1.27;;;29.30;66.90;;;;;;5058397;28;20486;-52
2022/07/12 09:55:57;;;;;;;1.90;1.27;;;29.50;66.00;;;;;;5061924;28;20940;-52
2022/07/12 09:58:27;;;;;;;1.90;1.30;;;29.60;63.30;;;;;;5058721;28;20820;-53
2022/07/12 10:00:54;;;;;;;1.73;1.07;;;29.60;62.80;;;;;;5053531;28;20787;-53
2022/07/12 10:03:24;;;;;;;1.70;0.90;;;29.50;62.70;;;;;;5062065;28;20478;-53
2022/07/12 10:05:54;;;;;;;2.00;1.40;;;29.50;63.60;;;;;;5057642;28;21032;-53
2022/07/12 10:08:23;;;;;;;2.20;1.30;;;29.60;64.20;;;;;;5054282;28;20493;-53
2022/07/12 10:10:50;;;;;;;2.77;1.20;;;29.80;63.30;;;;;;5061843;28;20536;-54
2022/07/12 10:13:18;;;;;;;1.90;1.40;;;29.80;63.10;;;;;;5063916;28;20483;-54
2022/07/12 10:15:47;;;;;;;1.80;1.40;;;29.90;64.70;;;;;;5053305;28;20916;-53
2022/07/12 10:18:19;;;;;;;2.13;1.00;;;29.90;63.70;;;;;;5059034;28;20577;-53
2022/07/12 10:20:46;;;;;;;2.83;1.43;;;30.00;61.20;;;;;;5061315;28;21098;-54
2022/07/12 10:23:34;;;;;;;2.43;1.73;;;29.50;60.70;;;;;;5065526;28;20457;-52
2022/07/12 10:26:01;;;;;;;2.60;1.60;;;29.10;60.80;;;;;;5060565;28;20495;-53
2022/07/12 10:28:55;;;;;;;2.00;1.40;;;29.20;64.10;;;;;;5060131;28;20461;-53
2022/07/12 10:31:25;;;;;;;1.80;1.30;;;29.20;65.40;;;;;;5041948;28;20812;-53
2022/07/12 10:34:13;;;;;;;2.10;1.63;;;29.90;66.10;;;;;;5060764;28;20887;-54
2022/07/12 10:37:11;;;;;;;1.90;1.50;;;30.20;62.40;;;;;;5046431;28;20483;-54
2022/07/12 10:39:40;;;;;;;1.83;0.90;;;30.50;63.70;;;;;;5055761;28;20868;-54
2022/07/12 10:42:17;;;;;;;1.80;1.33;;;30.60;60.20;;;;;;5060936;28;21360;-54
2022/07/12 10:44:46;;;;;;;1.90;1.13;;;30.60;59.80;;;;;;5062491;28;20860;-53
2022/07/12 10:47:15;;;;;;;1.70;0.97;;;30.60;59.60;;;;;;5048217;28;20474;-54
2022/07/12 10:49:50;;;;;;;2.63;1.03;;;30.60;59.30;;;;;;5050781;28;20452;-55
2022/07/12 10:52:25;;;;;;;1.63;0.87;;;30.20;58.60;;;;;;5058298;28;20491;-54
2022/07/12 10:55:17;;;;;;;2.07;1.20;;;30.20;61.00;;;;;;5052433;28;21011;-54
2022/07/12 10:57:46;;;;;;;2.00;1.07;;;30.30;60.40;;;;;;5012428;28;20927;-55
2022/07/12 11:00:14;;;;;;;5.10;1.30;;;30.40;61.10;;;;;;5060734;28;20453;-54
2022/07/12 11:02:41;;;;;;;1.83;1.27;;;30.40;60.90;;;;;;5061338;28;21066;-56
2022/07/12 11:05:09;;;;;;;1.70;1.10;;;30.50;60.30;;;;;;5051210;28;20462;-54
2022/07/12 11:07:36;;;;;;;4.87;1.50;;;30.20;59.40;;;;;;5040649;28;20573;-53
2022/07/12 11:10:04;;;;;;;2.10;1.30;;;30.30;63.10;;;;;;5055072;28;20889;-56
2022/07/12 11:12:33;;;;;;;2.00;1.23;;;30.40;60.40;;;;;;5060699;28;20456;-56
2022/07/12 11:15:01;;;;;;;1.80;1.00;;;30.60;60.40;;;;;;5058094;28;20453;-57
2022/07/12 11:17:28;;;;;;;1.70;1.00;;;30.60;59.90;;;;;;5060967;28;20966;-55
2022/07/12 11:20:09;;;;;;;2.50;1.60;;;30.60;57.70;;;;;;5060351;28;20469;-53
2022/07/12 11:22:37;;;;;;;2.93;1.73;;;30.10;58.10;;;;;;5061522;28;20546;-53
2022/07/12 11:25:06;;;;;;;1.93;1.30;;;30.20;61.30;;;;;;5060235;28;20561;-53
2022/07/12 11:27:35;;;;;;;2.83;1.40;;;30.20;61.30;;;;;;5055719;28;21879;-55
2022/07/12 11:30:02;;;;;;;2.90;1.53;;;30.40;61.10;;;;;;5056618;28;20499;-54
2022/07/12 11:32:40;;;;;;;2.23;1.30;;;30.50;59.60;;;;;;5059177;28;21397;-56
2022/07/12 11:35:25;;;;;;;2.53;1.57;;;30.80;59.20;;;;;;5051742;28;21109;-55
2022/07/12 11:37:53;;;;;;;1.77;1.17;;;31.10;59.50;;;;;;5049278;28;20441;-53
2022/07/12 11:40:24;;;;;;;3.40;1.10;;;31.00;59.80;;;;;;5061506;28;20971;-55
2022/07/12 11:42:58;;;;;;;1.77;1.00;;;31.20;58.00;;;;;;5051674;28;20460;-55
2022/07/12 11:45:25;;;;;;;1.77;1.10;;;31.20;58.20;;;;;;5064829;28;20531;-55
2022/07/12 11:47:53;;;;;;;2.37;0.97;;;31.30;59.60;;;;;;5052602;28;20845;-54
2022/07/12 11:50:20;;;;;;;4.17;1.43;;;31.30;58.60;;;;;;5050220;28;20575;-54
2022/07/12 11:52:47;;;;;;;1.80;1.00;;;31.30;59.50;;;;;;5055542;28;20902;-55
2022/07/12 11:55:14;;;;;;;1.80;1.10;;;31.40;58.60;;;;;;5051664;28;20908;-55
2022/07/12 11:57:40;;;;;;;1.80;1.07;;;31.40;59.30;;;;;;5038739;28;20449;-54
2022/07/12 12:00:16;;;;;;;2.93;1.47;;;31.60;60.00;;;;;;5049677;28;20477;-55
2022/07/12 12:02:43;;;;;;;2.10;1.33;;;31.60;60.30;;;;;;5029232;28;20635;-56
2022/07/12 12:05:10;;;;;;;1.80;1.10;;;31.80;59.10;;;;;;5034648;28;20474;-59
2022/07/12 12:07:36;;;;;;;2.10;1.37;;;31.90;59.50;;;;;;5049480;28;20448;-55
2022/07/12 12:10:05;;;;;;;2.07;1.07;;;32.00;59.10;;;;;;5056442;28;20942;-58
2022/07/12 12:12:39;;;;;;;4.73;1.50;;;32.20;59.20;;;;;;5058959;28;20491;-56
2022/07/12 12:15:08;;;;;;;1.70;1.00;;;32.20;58.20;;;;;;5062834;28;20439;-55
2022/07/12 12:17:37;;;;;;;1.70;0.80;;;32.40;58.90;;;;;;5057279;28;20828;-56
2022/07/12 12:20:11;;;;;;;2.93;1.00;;;32.40;58.00;;;;;;5058432;28;20548;-56
2022/07/12 12:22:38;;;;;;;2.30;1.10;;;32.50;58.70;;;;;;5060382;28;20457;-56
2022/07/12 12:25:12;;;;;;;1.80;1.30;;;32.60;58.00;;;;;;5064501;28;21075;-55
2022/07/12 12:27:42;;;;;;;1.77;1.07;;;32.60;57.70;;;;;;5060842;28;20470;-55
2022/07/12 12:30:09;;;;;;;1.90;1.00;;;32.60;57.60;;;;;;5062768;28;20912;-54
2022/07/12 12:32:46;;;;;;;1.73;0.97;;;32.10;54.60;;;;;;5063727;28;21033;-53
2022/07/12 12:35:15;;;;;;;1.80;0.90;;;31.90;55.50;;;;;;5050770;28;20450;-54
2022/07/12 12:37:49;;;;;;;1.80;0.90;;;31.90;58.40;;;;;;5045587;28;20881;-54
2022/07/12 12:40:19;;;;;;;2.47;1.00;;;32.00;58.40;;;;;;5061242;28;20456;-54
2022/07/12 12:42:46;;;;;;;3.90;1.23;;;32.00;56.00;;;;;;5058333;28;20493;-52
2022/07/12 12:45:19;;;;;;;3.10;1.20;;;32.00;57.60;;;;;;5062313;28;20579;-53
2022/07/12 12:47:55;;;;;;;1.87;1.10;;;31.80;54.80;;;;;;5051660;28;20967;-53
2022/07/12 12:50:43;;;;;;;10.70;1.00;;;31.90;57.50;;;;;;5052234;28;21100;-54
2022/07/12 12:53:12;;;;;;;1.90;1.37;;;32.10;58.10;;;;;;5064282;28;20878;-54
2022/07/12 12:55:39;;;;;;;3.10;1.20;;;32.20;55.40;;;;;;5054477;28;20495;-55
2022/07/12 12:58:06;;;;;;;1.70;0.93;;;32.30;57.10;;;;;;5063060;28;21019;-54
2022/07/12 13:00:33;;;;;;;2.73;1.70;;;32.30;56.80;;;;;;5064281;28;20468;-54